createdAt,value
2022-11-06T00:00:34.172Z,15.55
2022-11-06T00:05:55.788Z,14.13
2022-11-06T00:11:01.379Z,14.32
2022-11-06T00:16:12.168Z,14.45
2022-11-06T00:21:19.323Z,17.33
2022-11-06T00:26:26.148Z,19.13
2022-11-06T00:31:37.550Z,15.18
2022-11-06T00:36:42.542Z,15.77
2022-11-06T00:41:47.617Z,14.93
2022-11-06T00:46:55.310Z,14.60
2022-11-06T00:52:01.325Z,16.15
2022-11-06T00:57:07.158Z,13.02
2022-11-06T01:02:14.888Z,13.60
2022-11-06T01:07:24.273Z,13.75
2022-11-06T01:12:29.693Z,15.20
2022-11-06T01:17:38.088Z,13.00
2022-11-06T01:22:43.154Z,17.10
2022-11-06T01:27:48.380Z,16.23
2022-11-06T01:32:56.012Z,15.63
2022-11-06T01:38:01.089Z,16.67
2022-11-06T01:43:06.177Z,93.05
2022-11-06T01:48:14.646Z,33.45
2022-11-06T01:53:20.771Z,15.38
2022-11-06T01:58:27.556Z,21.20
2022-11-06T02:03:35.368Z,17.13
2022-11-06T02:08:40.664Z,16.98
2022-11-06T02:13:52.887Z,15.65
2022-11-06T02:19:38.646Z,15.88
2022-11-06T02:24:58.026Z,13.60
2022-11-06T02:30:09.207Z,16.13
2022-11-06T02:35:21.161Z,20.55
2022-11-06T02:40:29.264Z,25.52
2022-11-06T02:45:40.301Z,20.05
2022-11-06T02:50:48.870Z,17.13
2022-11-06T02:55:55.686Z,16.65
2022-11-06T03:01:08.219Z,18.50
2022-11-06T03:06:15.997Z,25.40
2022-11-06T03:11:23.508Z,17.67
2022-11-06T03:16:42.895Z,20.73
2022-11-06T03:21:57.117Z,21.13
2022-11-06T03:27:02.692Z,18.38
2022-11-06T03:32:17.441Z,17.95
2022-11-06T03:37:28.190Z,20.00
2022-11-06T03:42:35.229Z,14.13
2022-11-06T03:47:45.747Z,15.82
2022-11-06T03:52:57.100Z,14.60
2022-11-06T03:58:06.273Z,17.75
2022-11-06T04:03:19.081Z,19.52
2022-11-06T04:08:37.765Z,17.67
2022-11-06T04:13:56.472Z,16.55
2022-11-06T04:19:04.480Z,18.20
2022-11-06T04:24:25.460Z,21.95
2022-11-06T04:29:43.848Z,22.35
2022-11-06T04:34:57.224Z,21.88
2022-11-06T04:40:08.148Z,19.80
2022-11-06T04:45:16.837Z,18.77
2022-11-06T04:50:25.896Z,20.10
2022-11-06T04:55:32.549Z,21.10
2022-11-06T05:00:37.592Z,22.83
2022-11-06T05:05:45.533Z,19.95
2022-11-06T05:10:51.439Z,20.90
2022-11-06T05:15:59.265Z,26.73
2022-11-06T05:21:19.933Z,30.05
2022-11-06T05:26:25.657Z,31.63
2022-11-06T05:31:33.054Z,32.25
2022-11-06T05:36:40.762Z,36.70
2022-11-06T05:41:48.638Z,31.05
2022-11-06T05:46:53.866Z,40.08
2022-11-06T05:52:01.541Z,29.20
2022-11-06T05:57:06.886Z,33.03
2022-11-06T06:02:12.624Z,34.88
2022-11-06T06:07:20.372Z,29.75
2022-11-06T06:12:26.630Z,42.45
2022-11-06T06:17:31.631Z,41.42
2022-11-06T06:22:39.261Z,39.13
2022-11-06T06:27:44.220Z,35.47
2022-11-06T06:32:49.469Z,30.88
2022-11-06T06:37:58.317Z,30.23
2022-11-06T06:43:03.332Z,30.55
2022-11-06T06:48:09.574Z,36.05
2022-11-06T06:53:17.185Z,32.03
2022-11-06T06:58:22.664Z,33.22
2022-11-06T07:03:28.227Z,36.45
2022-11-06T07:08:36.403Z,33.90
2022-11-06T07:13:41.506Z,37.88
2022-11-06T07:18:46.757Z,36.15
2022-11-06T07:23:54.646Z,34.20
2022-11-06T07:28:59.755Z,32.08
2022-11-06T07:34:04.833Z,39.47
2022-11-06T07:39:12.481Z,37.15
2022-11-06T07:44:17.682Z,38.08
2022-11-06T07:49:22.893Z,32.00
2022-11-06T07:54:30.655Z,33.17
2022-11-06T07:59:37.372Z,41.00
2022-11-06T08:04:42.465Z,42.75
2022-11-06T08:09:50.147Z,49.28
2022-11-06T08:14:55.403Z,43.47
2022-11-06T08:20:00.430Z,56.55
2022-11-06T08:25:09.728Z,36.78
2022-11-06T08:30:16.060Z,38.13
2022-11-06T08:35:21.457Z,56.63
2022-11-06T08:40:31.171Z,45.95
2022-11-06T08:45:39.176Z,44.67
2022-11-06T08:50:44.436Z,65.65
2022-11-06T08:55:52.068Z,40.40
2022-11-06T09:00:57.223Z,39.42
2022-11-06T09:06:02.301Z,36.95
2022-11-06T09:11:12.210Z,33.92
2022-11-06T09:16:17.332Z,39.75
2022-11-06T09:21:22.394Z,31.23
2022-11-06T09:26:30.119Z,32.67
2022-11-06T09:31:35.085Z,36.33
2022-11-06T09:36:40.158Z,39.30
2022-11-06T09:41:53.538Z,36.80
2022-11-06T09:46:59.698Z,33.42
2022-11-06T09:52:07.341Z,31.27
2022-11-06T09:57:20.993Z,32.53
2022-11-06T10:02:32.824Z,30.73
2022-11-06T10:07:39.040Z,23.45
2022-11-06T10:12:56.842Z,31.30
2022-11-06T10:18:06.825Z,18.25
2022-11-06T10:23:19.332Z,21.25
2022-11-06T10:28:35.316Z,19.50
2022-11-06T10:33:48.988Z,19.17
2022-11-06T10:38:54.178Z,34.65
2022-11-06T10:44:04.997Z,16.90
2022-11-06T10:49:19.108Z,16.63
2022-11-06T10:54:34.528Z,27.83
2022-11-06T10:59:42.288Z,16.48
2022-11-06T11:04:47.453Z,15.52
2022-11-06T11:09:52.561Z,14.02
2022-11-06T11:15:21.677Z,22.73
2022-11-06T11:20:34.188Z,22.38
2022-11-06T11:25:39.326Z,23.35
2022-11-06T11:30:54.792Z,13.95
2022-11-06T11:35:59.968Z,12.82
2022-11-06T11:41:13.978Z,14.90
2022-11-06T11:46:23.768Z,16.58
2022-11-06T11:51:38.219Z,16.08
2022-11-06T12:02:26.973Z,15.27
2022-11-06T12:07:34.880Z,20.15
2022-11-06T12:12:40.325Z,22.10
2022-11-06T12:17:50.527Z,17.85
2022-11-06T12:22:56.123Z,23.17
2022-11-06T12:28:02.625Z,17.85
2022-11-06T12:33:14.686Z,17.00
2022-11-06T12:38:29.759Z,24.00
2022-11-06T12:43:39.925Z,18.17
2022-11-06T12:49:12.434Z,20.73
2022-11-06T12:54:28.905Z,38.90
2022-11-06T12:59:42.126Z,24.08
2022-11-06T13:04:56.912Z,20.55
2022-11-06T13:10:14.881Z,24.35
2022-11-06T13:15:26.457Z,22.50
2022-11-06T13:20:42.921Z,19.35
2022-11-06T13:25:52.302Z,22.08
2022-11-06T13:30:58.938Z,21.98
2022-11-06T13:36:07.562Z,19.20
2022-11-06T13:41:16.753Z,18.58
2022-11-06T13:46:29.551Z,18.43
2022-11-06T13:51:45.620Z,21.45
2022-11-06T13:57:07.796Z,34.03
2022-11-06T14:02:32.429Z,24.92
2022-11-06T14:07:42.104Z,25.85
2022-11-06T14:12:49.172Z,22.45
2022-11-06T14:17:58.848Z,21.98
2022-11-06T14:23:45.765Z,24.52
2022-11-06T14:28:53.399Z,20.58
2022-11-06T14:34:03.903Z,24.15
2022-11-06T14:39:14.215Z,20.65
2022-11-06T14:44:34.154Z,22.25
2022-11-06T14:49:42.273Z,20.33
2022-11-06T14:54:54.772Z,23.23
2022-11-06T15:00:02.802Z,21.17
2022-11-06T15:05:10.512Z,39.72
2022-11-06T15:10:54.036Z,50.30
2022-11-06T15:16:06.372Z,22.55
2022-11-06T15:21:18.236Z,23.80
2022-11-06T15:26:27.540Z,21.98
2022-11-06T15:31:36.020Z,22.60
2022-11-06T15:36:44.106Z,21.92
2022-11-06T15:41:49.185Z,26.30
2022-11-06T15:47:01.312Z,23.80
2022-11-06T15:52:06.672Z,24.77
2022-11-06T15:57:18.856Z,21.83
2022-11-06T16:02:26.545Z,21.63
2022-11-06T16:07:32.313Z,28.17
2022-11-06T16:12:37.491Z,24.95
2022-11-06T16:17:46.321Z,27.58
2022-11-06T16:22:51.468Z,23.63
2022-11-06T16:27:56.446Z,22.13
2022-11-06T16:33:04.277Z,46.85
2022-11-06T16:38:41.112Z,25.50
2022-11-06T16:43:48.026Z,27.75
2022-11-06T16:48:55.777Z,31.52
2022-11-06T16:54:03.836Z,29.13
2022-11-06T16:59:10.713Z,24.70
2022-11-06T17:04:26.384Z,24.10
2022-11-06T17:09:33.698Z,25.40
2022-11-06T17:14:38.764Z,37.53
2022-11-06T17:19:46.320Z,20.33
2022-11-06T17:24:51.427Z,23.08
2022-11-06T17:29:57.146Z,29.13
2022-11-06T17:35:05.132Z,25.02
2022-11-06T17:40:14.552Z,26.35
2022-11-06T17:45:19.930Z,24.03
2022-11-06T17:50:27.741Z,30.20
2022-11-06T17:55:32.847Z,29.90
2022-11-06T18:00:38.165Z,27.33
2022-11-06T18:05:47.997Z,30.50
2022-11-06T18:10:57.915Z,25.92
2022-11-06T18:16:03.636Z,37.88
2022-11-06T18:21:11.451Z,39.65
2022-11-06T18:26:16.641Z,39.28
2022-11-06T18:31:22.482Z,40.38
2022-11-06T18:36:30.217Z,40.60
2022-11-06T18:41:38.112Z,44.83
2022-11-06T18:46:43.221Z,37.30
2022-11-06T18:51:50.824Z,34.83
2022-11-06T18:56:56.034Z,27.27
2022-11-06T19:02:01.372Z,30.52
2022-11-06T19:07:09.100Z,28.77
2022-11-06T19:12:14.241Z,33.88
2022-11-06T19:17:19.241Z,36.00
2022-11-06T19:22:27.673Z,32.42
2022-11-06T19:27:32.873Z,34.15
2022-11-06T19:32:38.081Z,31.35
2022-11-06T19:37:45.928Z,34.17
2022-11-06T19:42:51.145Z,29.17
2022-11-06T19:47:56.238Z,36.78
2022-11-06T19:53:03.914Z,30.27
2022-11-06T19:58:08.912Z,33.65
2022-11-06T20:03:15.782Z,29.02
2022-11-06T20:08:23.765Z,28.58
2022-11-06T20:13:29.137Z,30.80
2022-11-06T20:18:35.812Z,27.08
2022-11-06T20:23:43.373Z,27.48
2022-11-06T20:28:49.209Z,28.42
2022-11-06T20:33:57.779Z,30.73
2022-11-06T20:39:06.336Z,29.50
2022-11-06T20:44:11.420Z,57.50
2022-11-06T20:49:16.460Z,25.20
2022-11-06T20:54:24.316Z,34.35
2022-11-06T20:59:29.450Z,36.17
2022-11-06T21:04:34.458Z,28.30
2022-11-06T21:09:42.005Z,39.90
2022-11-06T21:14:47.325Z,32.97
2022-11-06T21:19:52.480Z,34.70
2022-11-06T21:25:00.131Z,35.72
2022-11-06T21:30:05.088Z,31.52
2022-11-06T21:35:11.538Z,43.58
2022-11-06T21:40:19.301Z,30.60
2022-11-06T21:45:24.337Z,33.50
2022-11-06T21:50:30.610Z,35.58
2022-11-06T21:55:53.880Z,104.80
2022-11-06T22:00:59.067Z,82.28
2022-11-06T22:06:10.496Z,46.65
2022-11-06T22:11:20.620Z,47.88
2022-11-06T22:21:32.607Z,36.70
2022-11-06T22:26:40.310Z,38.25
2022-11-06T22:31:45.483Z,40.15
2022-11-06T22:36:50.505Z,39.50
2022-11-06T22:41:58.081Z,34.88
2022-11-06T22:47:04.623Z,38.45
2022-11-06T22:52:09.544Z,42.65
2022-11-06T22:57:17.163Z,43.03
2022-11-06T23:02:22.444Z,38.95
2022-11-06T23:07:27.658Z,56.33
2022-11-06T23:12:36.193Z,43.40
2022-11-06T23:17:41.127Z,46.08
2022-11-06T23:22:46.113Z,39.95
2022-11-06T23:27:53.676Z,41.63
2022-11-06T23:33:02.338Z,37.63
2022-11-06T23:38:07.433Z,40.90
2022-11-06T23:43:15.616Z,92.85
2022-11-06T23:48:20.741Z,53.35
2022-11-06T23:53:25.762Z,41.10
2022-11-06T23:58:33.352Z,38.53
